sensor_id;sensor_type;location;lat;lon;timestamp;P1;durP1;ratioP1;P2;durP2;ratioP2
6105;SDS011;3083;51.508;7.966;2023-11-19T00:01:45;2.90;;;1.70;;
6105;SDS011;3083;51.508;7.966;2023-11-19T00:04:12;2.90;;;1.43;;
6105;SDS011;3083;51.508;7.966;2023-11-19T00:06:41;2.50;;;1.30;;
6105;SDS011;3083;51.508;7.966;2023-11-19T00:09:08;3.73;;;1.67;;
6105;SDS011;3083;51.508;7.966;2023-11-19T00:11:34;2.80;;;1.67;;
6105;SDS011;3083;51.508;7.966;2023-11-19T00:14:01;3.13;;;1.70;;
6105;SDS011;3083;51.508;7.966;2023-11-19T00:16:29;2.50;;;1.37;;
6105;SDS011;3083;51.508;7.966;2023-11-19T00:18:57;3.00;;;1.63;;
6105;SDS011;3083;51.508;7.966;2023-11-19T00:21:24;2.13;;;1.20;;
6105;SDS011;3083;51.508;7.966;2023-11-19T00:23:55;3.00;;;1.47;;
6105;SDS011;3083;51.508;7.966;2023-11-19T00:26:23;2.13;;;1.20;;
6105;SDS011;3083;51.508;7.966;2023-11-19T00:28:50;2.97;;;1.27;;
6105;SDS011;3083;51.508;7.966;2023-11-19T00:31:17;2.83;;;1.50;;
6105;SDS011;3083;51.508;7.966;2023-11-19T00:33:44;2.37;;;1.20;;
6105;SDS011;3083;51.508;7.966;2023-11-19T00:36:11;2.70;;;1.40;;
6105;SDS011;3083;51.508;7.966;2023-11-19T00:38:38;2.33;;;1.17;;
6105;SDS011;3083;51.508;7.966;2023-11-19T00:41:06;2.80;;;1.30;;
6105;SDS011;3083;51.508;7.966;2023-11-19T00:43:33;2.87;;;1.00;;
6105;SDS011;3083;51.508;7.966;2023-11-19T00:46:00;2.20;;;1.10;;
6105;SDS011;3083;51.508;7.966;2023-11-19T00:48:28;2.50;;;1.20;;
6105;SDS011;3083;51.508;7.966;2023-11-19T00:50:55;2.27;;;1.10;;
6105;SDS011;3083;51.508;7.966;2023-11-19T00:53:21;2.40;;;1.23;;
6105;SDS011;3083;51.508;7.966;2023-11-19T00:55:48;2.30;;;1.10;;
6105;SDS011;3083;51.508;7.966;2023-11-19T00:58:16;2.50;;;1.30;;
6105;SDS011;3083;51.508;7.966;2023-11-19T01:00:43;5.33;;;1.77;;
6105;SDS011;3083;51.508;7.966;2023-11-19T01:03:10;3.60;;;1.10;;
6105;SDS011;3083;51.508;7.966;2023-11-19T01:05:37;3.20;;;1.17;;
6105;SDS011;3083;51.508;7.966;2023-11-19T01:08:04;2.47;;;1.40;;
6105;SDS011;3083;51.508;7.966;2023-11-19T01:10:31;2.37;;;1.50;;
6105;SDS011;3083;51.508;7.966;2023-11-19T01:12:59;3.40;;;1.80;;
6105;SDS011;3083;51.508;7.966;2023-11-19T01:15:27;2.53;;;1.37;;
6105;SDS011;3083;51.508;7.966;2023-11-19T01:17:54;2.67;;;1.60;;
6105;SDS011;3083;51.508;7.966;2023-11-19T01:20:20;4.80;;;2.10;;
6105;SDS011;3083;51.508;7.966;2023-11-19T01:22:47;5.87;;;2.20;;
6105;SDS011;3083;51.508;7.966;2023-11-19T01:25:14;3.00;;;1.90;;
6105;SDS011;3083;51.508;7.966;2023-11-19T01:27:41;3.73;;;2.30;;
6105;SDS011;3083;51.508;7.966;2023-11-19T01:30:09;4.00;;;2.30;;
6105;SDS011;3083;51.508;7.966;2023-11-19T01:32:39;4.40;;;2.23;;
6105;SDS011;3083;51.508;7.966;2023-11-19T01:35:06;5.33;;;2.67;;
6105;SDS011;3083;51.508;7.966;2023-11-19T01:37:34;4.53;;;2.40;;
6105;SDS011;3083;51.508;7.966;2023-11-19T01:40:01;4.27;;;2.57;;
6105;SDS011;3083;51.508;7.966;2023-11-19T01:42:29;4.80;;;2.63;;
6105;SDS011;3083;51.508;7.966;2023-11-19T01:45:02;4.27;;;2.73;;
6105;SDS011;3083;51.508;7.966;2023-11-19T01:47:31;3.57;;;2.67;;
6105;SDS011;3083;51.508;7.966;2023-11-19T01:50:00;5.77;;;3.37;;
6105;SDS011;3083;51.508;7.966;2023-11-19T01:52:31;5.87;;;3.40;;
6105;SDS011;3083;51.508;7.966;2023-11-19T01:55:01;5.77;;;3.60;;
6105;SDS011;3083;51.508;7.966;2023-11-19T01:57:29;7.43;;;3.97;;
6105;SDS011;3083;51.508;7.966;2023-11-19T01:59:56;6.63;;;3.57;;
6105;SDS011;3083;51.508;7.966;2023-11-19T02:02:23;7.07;;;3.50;;
6105;SDS011;3083;51.508;7.966;2023-11-19T02:04:51;11.30;;;4.10;;
6105;SDS011;3083;51.508;7.966;2023-11-19T02:07:20;5.37;;;3.70;;
6105;SDS011;3083;51.508;7.966;2023-11-19T02:09:47;5.90;;;3.70;;
6105;SDS011;3083;51.508;7.966;2023-11-19T02:12:14;4.97;;;3.73;;
6105;SDS011;3083;51.508;7.966;2023-11-19T02:14:41;6.27;;;3.63;;
6105;SDS011;3083;51.508;7.966;2023-11-19T02:17:08;5.43;;;3.50;;
6105;SDS011;3083;51.508;7.966;2023-11-19T02:19:52;5.50;;;4.00;;
6105;SDS011;3083;51.508;7.966;2023-11-19T02:22:19;6.20;;;3.90;;
6105;SDS011;3083;51.508;7.966;2023-11-19T02:24:47;6.10;;;4.00;;
6105;SDS011;3083;51.508;7.966;2023-11-19T02:27:19;4.07;;;2.77;;
6105;SDS011;3083;51.508;7.966;2023-11-19T02:29:55;4.27;;;2.73;;
6105;SDS011;3083;51.508;7.966;2023-11-19T02:32:22;4.70;;;2.87;;
6105;SDS011;3083;51.508;7.966;2023-11-19T02:34:50;5.37;;;2.80;;
6105;SDS011;3083;51.508;7.966;2023-11-19T02:37:18;3.50;;;2.50;;
6105;SDS011;3083;51.508;7.966;2023-11-19T02:39:45;3.83;;;2.57;;
6105;SDS011;3083;51.508;7.966;2023-11-19T02:42:12;3.47;;;2.20;;
6105;SDS011;3083;51.508;7.966;2023-11-19T02:44:39;3.60;;;2.10;;
6105;SDS011;3083;51.508;7.966;2023-11-19T02:47:11;4.73;;;2.30;;
6105;SDS011;3083;51.508;7.966;2023-11-19T02:49:38;4.23;;;2.60;;
6105;SDS011;3083;51.508;7.966;2023-11-19T02:52:05;10.23;;;2.70;;
6105;SDS011;3083;51.508;7.966;2023-11-19T02:54:35;4.30;;;2.70;;
6105;SDS011;3083;51.508;7.966;2023-11-19T02:57:02;5.23;;;3.33;;
6105;SDS011;3083;51.508;7.966;2023-11-19T02:59:30;4.57;;;3.13;;
6105;SDS011;3083;51.508;7.966;2023-11-19T03:02:04;7.60;;;3.50;;
6105;SDS011;3083;51.508;7.966;2023-11-19T03:04:33;8.20;;;3.97;;
6105;SDS011;3083;51.508;7.966;2023-11-19T03:07:00;5.17;;;3.30;;
6105;SDS011;3083;51.508;7.966;2023-11-19T03:09:27;4.77;;;3.23;;
6105;SDS011;3083;51.508;7.966;2023-11-19T03:11:54;6.33;;;3.30;;
6105;SDS011;3083;51.508;7.966;2023-11-19T03:14:21;6.87;;;3.80;;
6105;SDS011;3083;51.508;7.966;2023-11-19T03:16:49;7.70;;;3.70;;
6105;SDS011;3083;51.508;7.966;2023-11-19T03:19:16;9.50;;;3.63;;
6105;SDS011;3083;51.508;7.966;2023-11-19T03:21:44;6.00;;;3.40;;
6105;SDS011;3083;51.508;7.966;2023-11-19T03:24:12;4.87;;;3.30;;
6105;SDS011;3083;51.508;7.966;2023-11-19T03:26:40;7.10;;;3.40;;
6105;SDS011;3083;51.508;7.966;2023-11-19T03:29:07;15.37;;;3.37;;
6105;SDS011;3083;51.508;7.966;2023-11-19T03:31:34;9.90;;;3.70;;
6105;SDS011;3083;51.508;7.966;2023-11-19T03:34:01;9.53;;;3.63;;
6105;SDS011;3083;51.508;7.966;2023-11-19T03:36:31;8.13;;;3.37;;
6105;SDS011;3083;51.508;7.966;2023-11-19T03:39:00;15.60;;;3.93;;
6105;SDS011;3083;51.508;7.966;2023-11-19T03:41:28;7.50;;;3.13;;
6105;SDS011;3083;51.508;7.966;2023-11-19T03:43:55;9.77;;;3.57;;
6105;SDS011;3083;51.508;7.966;2023-11-19T03:46:22;16.47;;;4.77;;
6105;SDS011;3083;51.508;7.966;2023-11-19T03:48:49;13.27;;;4.17;;
6105;SDS011;3083;51.508;7.966;2023-11-19T03:51:16;7.40;;;2.77;;
6105;SDS011;3083;51.508;7.966;2023-11-19T03:53:43;11.47;;;3.90;;
6105;SDS011;3083;51.508;7.966;2023-11-19T03:56:12;10.57;;;3.20;;
6105;SDS011;3083;51.508;7.966;2023-11-19T03:58:39;14.07;;;3.77;;
6105;SDS011;3083;51.508;7.966;2023-11-19T04:01:10;6.87;;;2.93;;
6105;SDS011;3083;51.508;7.966;2023-11-19T04:03:38;7.47;;;3.70;;
6105;SDS011;3083;51.508;7.966;2023-11-19T04:06:05;12.63;;;4.07;;
6105;SDS011;3083;51.508;7.966;2023-11-19T04:08:32;11.30;;;4.70;;
6105;SDS011;3083;51.508;7.966;2023-11-19T04:11:00;7.33;;;3.17;;
6105;SDS011;3083;51.508;7.966;2023-11-19T04:13:29;6.63;;;3.40;;
6105;SDS011;3083;51.508;7.966;2023-11-19T04:15:55;15.33;;;5.03;;
6105;SDS011;3083;51.508;7.966;2023-11-19T04:18:22;13.53;;;4.10;;
6105;SDS011;3083;51.508;7.966;2023-11-19T04:20:50;7.53;;;3.90;;
6105;SDS011;3083;51.508;7.966;2023-11-19T04:23:17;12.30;;;4.10;;
6105;SDS011;3083;51.508;7.966;2023-11-19T04:25:44;11.20;;;4.50;;
6105;SDS011;3083;51.508;7.966;2023-11-19T04:28:11;16.80;;;3.93;;
6105;SDS011;3083;51.508;7.966;2023-11-19T04:30:39;16.37;;;4.73;;
6105;SDS011;3083;51.508;7.966;2023-11-19T04:33:06;15.60;;;5.60;;
6105;SDS011;3083;51.508;7.966;2023-11-19T04:35:33;10.50;;;3.83;;
6105;SDS011;3083;51.508;7.966;2023-11-19T04:37:59;13.73;;;4.23;;
6105;SDS011;3083;51.508;7.966;2023-11-19T04:40:26;15.13;;;4.50;;
6105;SDS011;3083;51.508;7.966;2023-11-19T04:42:53;10.73;;;4.00;;
6105;SDS011;3083;51.508;7.966;2023-11-19T04:45:20;17.83;;;4.13;;
6105;SDS011;3083;51.508;7.966;2023-11-19T04:47:48;11.07;;;4.37;;
6105;SDS011;3083;51.508;7.966;2023-11-19T04:50:15;8.77;;;3.50;;
6105;SDS011;3083;51.508;7.966;2023-11-19T04:52:43;18.03;;;4.60;;
6105;SDS011;3083;51.508;7.966;2023-11-19T04:55:10;14.17;;;3.80;;
6105;SDS011;3083;51.508;7.966;2023-11-19T04:57:39;13.70;;;4.07;;
6105;SDS011;3083;51.508;7.966;2023-11-19T05:00:06;12.33;;;3.53;;
6105;SDS011;3083;51.508;7.966;2023-11-19T05:02:36;11.70;;;3.80;;
6105;SDS011;3083;51.508;7.966;2023-11-19T05:05:05;18.03;;;4.20;;
6105;SDS011;3083;51.508;7.966;2023-11-19T05:07:32;15.10;;;4.40;;
6105;SDS011;3083;51.508;7.966;2023-11-19T05:09:59;12.80;;;3.63;;
6105;SDS011;3083;51.508;7.966;2023-11-19T05:12:26;12.43;;;3.33;;
6105;SDS011;3083;51.508;7.966;2023-11-19T05:14:53;13.50;;;4.27;;
6105;SDS011;3083;51.508;7.966;2023-11-19T05:17:19;11.53;;;3.30;;
6105;SDS011;3083;51.508;7.966;2023-11-19T05:19:46;14.30;;;3.73;;
6105;SDS011;3083;51.508;7.966;2023-11-19T05:22:15;18.20;;;4.73;;
6105;SDS011;3083;51.508;7.966;2023-11-19T05:24:43;15.50;;;4.00;;
6105;SDS011;3083;51.508;7.966;2023-11-19T05:27:09;10.40;;;3.27;;
6105;SDS011;3083;51.508;7.966;2023-11-19T05:29:38;10.83;;;3.60;;
6105;SDS011;3083;51.508;7.966;2023-11-19T05:32:06;9.93;;;3.93;;
6105;SDS011;3083;51.508;7.966;2023-11-19T05:34:33;17.13;;;3.60;;
6105;SDS011;3083;51.508;7.966;2023-11-19T05:37:00;16.77;;;4.00;;
6105;SDS011;3083;51.508;7.966;2023-11-19T05:39:28;10.60;;;3.67;;
6105;SDS011;3083;51.508;7.966;2023-11-19T05:41:55;18.40;;;3.57;;
6105;SDS011;3083;51.508;7.966;2023-11-19T05:44:22;12.83;;;3.60;;
6105;SDS011;3083;51.508;7.966;2023-11-19T05:46:49;15.00;;;4.20;;
6105;SDS011;3083;51.508;7.966;2023-11-19T05:49:15;25.40;;;4.30;;
6105;SDS011;3083;51.508;7.966;2023-11-19T05:51:43;16.50;;;3.70;;
6105;SDS011;3083;51.508;7.966;2023-11-19T05:54:11;17.87;;;3.90;;
6105;SDS011;3083;51.508;7.966;2023-11-19T05:56:40;14.00;;;4.00;;
6105;SDS011;3083;51.508;7.966;2023-11-19T05:59:07;20.83;;;4.10;;
6105;SDS011;3083;51.508;7.966;2023-11-19T06:01:40;22.53;;;3.87;;
6105;SDS011;3083;51.508;7.966;2023-11-19T06:04:07;15.00;;;4.57;;
6105;SDS011;3083;51.508;7.966;2023-11-19T06:06:35;26.23;;;3.90;;
6105;SDS011;3083;51.508;7.966;2023-11-19T06:09:02;18.23;;;4.10;;
6105;SDS011;3083;51.508;7.966;2023-11-19T06:11:31;21.57;;;4.20;;
6105;SDS011;3083;51.508;7.966;2023-11-19T06:13:59;12.83;;;3.93;;
6105;SDS011;3083;51.508;7.966;2023-11-19T06:16:26;28.60;;;4.83;;
6105;SDS011;3083;51.508;7.966;2023-11-19T06:18:53;17.53;;;3.50;;
6105;SDS011;3083;51.508;7.966;2023-11-19T06:21:20;14.20;;;3.73;;
6105;SDS011;3083;51.508;7.966;2023-11-19T06:23:47;18.40;;;3.90;;
6105;SDS011;3083;51.508;7.966;2023-11-19T06:26:14;15.87;;;4.23;;
6105;SDS011;3083;51.508;7.966;2023-11-19T06:28:41;17.57;;;4.33;;
6105;SDS011;3083;51.508;7.966;2023-11-19T06:31:09;21.33;;;4.80;;
6105;SDS011;3083;51.508;7.966;2023-11-19T06:33:36;11.87;;;4.00;;
6105;SDS011;3083;51.508;7.966;2023-11-19T06:36:03;19.47;;;3.90;;
6105;SDS011;3083;51.508;7.966;2023-11-19T06:38:30;17.13;;;4.13;;
6105;SDS011;3083;51.508;7.966;2023-11-19T06:40:57;19.63;;;4.40;;
6105;SDS011;3083;51.508;7.966;2023-11-19T06:43:24;15.37;;;3.77;;
6105;SDS011;3083;51.508;7.966;2023-11-19T06:45:50;14.67;;;4.53;;
6105;SDS011;3083;51.508;7.966;2023-11-19T06:48:20;18.00;;;4.33;;
6105;SDS011;3083;51.508;7.966;2023-11-19T06:50:46;14.93;;;3.70;;
6105;SDS011;3083;51.508;7.966;2023-11-19T06:53:13;15.03;;;4.00;;
6105;SDS011;3083;51.508;7.966;2023-11-19T06:55:40;14.17;;;3.40;;
6105;SDS011;3083;51.508;7.966;2023-11-19T06:58:07;14.77;;;3.77;;
6105;SDS011;3083;51.508;7.966;2023-11-19T07:00:34;11.87;;;3.70;;
6105;SDS011;3083;51.508;7.966;2023-11-19T07:03:01;14.77;;;3.83;;
6105;SDS011;3083;51.508;7.966;2023-11-19T07:05:29;15.87;;;3.83;;
6105;SDS011;3083;51.508;7.966;2023-11-19T07:07:56;22.70;;;4.40;;
6105;SDS011;3083;51.508;7.966;2023-11-19T07:10:23;17.87;;;4.93;;
6105;SDS011;3083;51.508;7.966;2023-11-19T07:12:50;8.97;;;3.83;;
6105;SDS011;3083;51.508;7.966;2023-11-19T07:15:16;16.80;;;4.67;;
6105;SDS011;3083;51.508;7.966;2023-11-19T07:17:43;15.43;;;4.83;;
6105;SDS011;3083;51.508;7.966;2023-11-19T07:20:11;19.70;;;4.60;;
6105;SDS011;3083;51.508;7.966;2023-11-19T07:22:43;24.03;;;4.20;;
6105;SDS011;3083;51.508;7.966;2023-11-19T07:25:10;13.57;;;3.50;;
6105;SDS011;3083;51.508;7.966;2023-11-19T07:27:38;18.50;;;4.10;;
6105;SDS011;3083;51.508;7.966;2023-11-19T07:30:06;14.60;;;3.60;;
6105;SDS011;3083;51.508;7.966;2023-11-19T07:32:33;16.83;;;4.33;;
6105;SDS011;3083;51.508;7.966;2023-11-19T07:35:00;12.50;;;4.60;;
6105;SDS011;3083;51.508;7.966;2023-11-19T07:37:27;14.40;;;3.60;;
6105;SDS011;3083;51.508;7.966;2023-11-19T07:39:55;21.63;;;4.13;;
6105;SDS011;3083;51.508;7.966;2023-11-19T07:42:22;14.43;;;4.23;;
6105;SDS011;3083;51.508;7.966;2023-11-19T07:44:49;8.90;;;3.50;;
6105;SDS011;3083;51.508;7.966;2023-11-19T07:47:16;13.60;;;3.77;;
6105;SDS011;3083;51.508;7.966;2023-11-19T07:49:43;11.80;;;3.47;;
6105;SDS011;3083;51.508;7.966;2023-11-19T07:52:10;9.80;;;2.73;;
6105;SDS011;3083;51.508;7.966;2023-11-19T07:54:37;20.60;;;3.50;;
6105;SDS011;3083;51.508;7.966;2023-11-19T07:57:05;16.37;;;4.20;;
6105;SDS011;3083;51.508;7.966;2023-11-19T07:59:31;13.63;;;4.00;;
6105;SDS011;3083;51.508;7.966;2023-11-19T08:01:58;12.73;;;3.83;;
6105;SDS011;3083;51.508;7.966;2023-11-19T08:04:25;12.53;;;3.50;;
6105;SDS011;3083;51.508;7.966;2023-11-19T08:06:52;11.50;;;3.53;;
6105;SDS011;3083;51.508;7.966;2023-11-19T08:09:19;14.27;;;3.30;;
6105;SDS011;3083;51.508;7.966;2023-11-19T08:11:46;12.83;;;3.80;;
6105;SDS011;3083;51.508;7.966;2023-11-19T08:14:14;13.60;;;3.67;;
6105;SDS011;3083;51.508;7.966;2023-11-19T08:16:41;17.37;;;3.97;;
6105;SDS011;3083;51.508;7.966;2023-11-19T08:19:08;21.10;;;4.07;;
6105;SDS011;3083;51.508;7.966;2023-11-19T08:21:34;12.40;;;3.27;;
6105;SDS011;3083;51.508;7.966;2023-11-19T08:24:01;17.03;;;4.00;;
6105;SDS011;3083;51.508;7.966;2023-11-19T08:26:28;19.33;;;3.93;;
6105;SDS011;3083;51.508;7.966;2023-11-19T08:28:55;18.33;;;3.70;;
6105;SDS011;3083;51.508;7.966;2023-11-19T08:31:24;21.17;;;3.77;;
6105;SDS011;3083;51.508;7.966;2023-11-19T08:33:51;16.20;;;3.67;;
6105;SDS011;3083;51.508;7.966;2023-11-19T08:36:17;19.37;;;3.57;;
6105;SDS011;3083;51.508;7.966;2023-11-19T08:38:45;21.93;;;4.27;;
6105;SDS011;3083;51.508;7.966;2023-11-19T08:41:13;18.20;;;3.70;;
6105;SDS011;3083;51.508;7.966;2023-11-19T08:43:40;15.37;;;4.30;;
6105;SDS011;3083;51.508;7.966;2023-11-19T08:46:09;13.00;;;3.23;;
6105;SDS011;3083;51.508;7.966;2023-11-19T08:48:37;15.83;;;4.03;;
6105;SDS011;3083;51.508;7.966;2023-11-19T08:51:04;16.60;;;3.90;;
6105;SDS011;3083;51.508;7.966;2023-11-19T08:53:31;18.93;;;4.10;;
6105;SDS011;3083;51.508;7.966;2023-11-19T08:55:58;19.53;;;4.70;;
6105;SDS011;3083;51.508;7.966;2023-11-19T08:58:25;20.23;;;3.80;;
6105;SDS011;3083;51.508;7.966;2023-11-19T09:00:52;14.73;;;3.77;;
6105;SDS011;3083;51.508;7.966;2023-11-19T09:03:19;14.17;;;3.53;;
6105;SDS011;3083;51.508;7.966;2023-11-19T09:05:48;17.13;;;4.37;;
6105;SDS011;3083;51.508;7.966;2023-11-19T09:08:14;14.80;;;3.90;;
6105;SDS011;3083;51.508;7.966;2023-11-19T09:10:41;19.13;;;4.33;;
6105;SDS011;3083;51.508;7.966;2023-11-19T09:13:08;23.97;;;5.53;;
6105;SDS011;3083;51.508;7.966;2023-11-19T09:15:35;20.07;;;4.87;;
6105;SDS011;3083;51.508;7.966;2023-11-19T09:18:03;17.20;;;4.33;;
6105;SDS011;3083;51.508;7.966;2023-11-19T09:20:29;24.67;;;4.00;;
6105;SDS011;3083;51.508;7.966;2023-11-19T09:23:04;18.10;;;4.37;;
6105;SDS011;3083;51.508;7.966;2023-11-19T09:25:33;13.37;;;3.50;;
6105;SDS011;3083;51.508;7.966;2023-11-19T09:28:01;22.90;;;4.60;;
6105;SDS011;3083;51.508;7.966;2023-11-19T09:30:28;16.17;;;3.87;;
6105;SDS011;3083;51.508;7.966;2023-11-19T09:32:56;27.07;;;3.80;;
6105;SDS011;3083;51.508;7.966;2023-11-19T09:35:23;25.53;;;3.83;;
6105;SDS011;3083;51.508;7.966;2023-11-19T09:37:50;23.97;;;4.00;;
6105;SDS011;3083;51.508;7.966;2023-11-19T09:40:18;14.97;;;3.90;;
6105;SDS011;3083;51.508;7.966;2023-11-19T09:42:47;18.03;;;3.60;;
6105;SDS011;3083;51.508;7.966;2023-11-19T09:45:14;14.10;;;3.97;;
6105;SDS011;3083;51.508;7.966;2023-11-19T09:47:43;13.10;;;3.90;;
6105;SDS011;3083;51.508;7.966;2023-11-19T09:50:13;19.07;;;4.27;;
6105;SDS011;3083;51.508;7.966;2023-11-19T09:52:42;17.70;;;4.40;;
6105;SDS011;3083;51.508;7.966;2023-11-19T09:55:09;13.10;;;3.70;;
6105;SDS011;3083;51.508;7.966;2023-11-19T09:57:38;22.70;;;3.90;;
6105;SDS011;3083;51.508;7.966;2023-11-19T10:00:07;16.33;;;4.27;;
6105;SDS011;3083;51.508;7.966;2023-11-19T10:02:35;20.13;;;4.67;;
6105;SDS011;3083;51.508;7.966;2023-11-19T10:05:04;16.20;;;5.20;;
6105;SDS011;3083;51.508;7.966;2023-11-19T10:07:32;18.20;;;3.50;;
6105;SDS011;3083;51.508;7.966;2023-11-19T10:10:00;15.30;;;4.03;;
6105;SDS011;3083;51.508;7.966;2023-11-19T10:12:29;14.57;;;3.97;;
6105;SDS011;3083;51.508;7.966;2023-11-19T10:14:57;19.63;;;3.97;;
6105;SDS011;3083;51.508;7.966;2023-11-19T10:17:27;18.33;;;4.10;;
6105;SDS011;3083;51.508;7.966;2023-11-19T10:19:55;13.53;;;3.30;;
6105;SDS011;3083;51.508;7.966;2023-11-19T10:22:22;13.90;;;3.80;;
6105;SDS011;3083;51.508;7.966;2023-11-19T10:24:50;20.50;;;4.47;;
6105;SDS011;3083;51.508;7.966;2023-11-19T10:27:17;15.10;;;3.77;;
6105;SDS011;3083;51.508;7.966;2023-11-19T10:29:44;17.03;;;4.10;;
6105;SDS011;3083;51.508;7.966;2023-11-19T10:32:13;18.07;;;3.67;;
6105;SDS011;3083;51.508;7.966;2023-11-19T10:34:40;19.30;;;3.93;;
6105;SDS011;3083;51.508;7.966;2023-11-19T10:37:08;16.27;;;3.70;;
6105;SDS011;3083;51.508;7.966;2023-11-19T10:39:53;17.47;;;4.10;;
6105;SDS011;3083;51.508;7.966;2023-11-19T10:42:21;10.97;;;3.50;;
6105;SDS011;3083;51.508;7.966;2023-11-19T10:44:48;16.63;;;4.30;;
6105;SDS011;3083;51.508;7.966;2023-11-19T10:47:16;14.20;;;3.93;;
6105;SDS011;3083;51.508;7.966;2023-11-19T10:49:47;19.10;;;4.10;;
6105;SDS011;3083;51.508;7.966;2023-11-19T10:52:15;19.17;;;4.50;;
6105;SDS011;3083;51.508;7.966;2023-11-19T10:54:44;16.40;;;4.60;;
6105;SDS011;3083;51.508;7.966;2023-11-19T10:57:16;15.73;;;3.30;;
6105;SDS011;3083;51.508;7.966;2023-11-19T10:59:47;16.23;;;3.53;;
6105;SDS011;3083;51.508;7.966;2023-11-19T11:02:18;16.33;;;4.60;;
6105;SDS011;3083;51.508;7.966;2023-11-19T11:04:47;16.20;;;4.20;;
6105;SDS011;3083;51.508;7.966;2023-11-19T11:07:15;21.33;;;4.23;;
6105;SDS011;3083;51.508;7.966;2023-11-19T11:09:46;14.00;;;4.10;;
6105;SDS011;3083;51.508;7.966;2023-11-19T11:12:14;23.37;;;4.60;;
6105;SDS011;3083;51.508;7.966;2023-11-19T11:14:43;18.30;;;3.93;;
6105;SDS011;3083;51.508;7.966;2023-11-19T11:17:12;12.93;;;4.10;;
6105;SDS011;3083;51.508;7.966;2023-11-19T11:19:45;16.00;;;4.70;;
6105;SDS011;3083;51.508;7.966;2023-11-19T11:22:11;19.83;;;4.07;;
6105;SDS011;3083;51.508;7.966;2023-11-19T11:24:47;20.57;;;4.80;;
6105;SDS011;3083;51.508;7.966;2023-11-19T11:27:54;15.93;;;3.80;;
6105;SDS011;3083;51.508;7.966;2023-11-19T11:30:32;19.20;;;4.57;;
6105;SDS011;3083;51.508;7.966;2023-11-19T11:33:09;16.40;;;4.00;;
6105;SDS011;3083;51.508;7.966;2023-11-19T11:35:52;18.73;;;4.70;;
6105;SDS011;3083;51.508;7.966;2023-11-19T11:38:30;17.57;;;4.00;;
6105;SDS011;3083;51.508;7.966;2023-11-19T11:41:16;20.30;;;4.37;;
6105;SDS011;3083;51.508;7.966;2023-11-19T11:43:45;19.63;;;4.63;;
6105;SDS011;3083;51.508;7.966;2023-11-19T11:49:17;18.97;;;4.90;;
6105;SDS011;3083;51.508;7.966;2023-11-19T11:52:00;18.47;;;4.37;;
6105;SDS011;3083;51.508;7.966;2023-11-19T11:54:28;13.90;;;3.63;;
6105;SDS011;3083;51.508;7.966;2023-11-19T11:57:08;16.93;;;3.60;;
6105;SDS011;3083;51.508;7.966;2023-11-19T11:59:43;16.57;;;3.67;;
6105;SDS011;3083;51.508;7.966;2023-11-19T12:02:13;16.83;;;3.77;;
6105;SDS011;3083;51.508;7.966;2023-11-19T12:04:42;30.33;;;4.00;;
6105;SDS011;3083;51.508;7.966;2023-11-19T12:07:13;15.50;;;4.60;;
6105;SDS011;3083;51.508;7.966;2023-11-19T12:09:42;15.87;;;4.20;;
6105;SDS011;3083;51.508;7.966;2023-11-19T12:12:21;15.27;;;4.10;;
6105;SDS011;3083;51.508;7.966;2023-11-19T12:15:05;21.73;;;4.70;;
6105;SDS011;3083;51.508;7.966;2023-11-19T12:17:41;18.37;;;4.03;;
6105;SDS011;3083;51.508;7.966;2023-11-19T12:20:10;24.13;;;3.87;;
6105;SDS011;3083;51.508;7.966;2023-11-19T12:22:39;18.40;;;4.90;;
6105;SDS011;3083;51.508;7.966;2023-11-19T12:25:07;21.63;;;4.47;;
6105;SDS011;3083;51.508;7.966;2023-11-19T12:27:35;13.17;;;3.80;;
6105;SDS011;3083;51.508;7.966;2023-11-19T12:30:02;20.73;;;3.80;;
6105;SDS011;3083;51.508;7.966;2023-11-19T12:35:15;17.57;;;4.47;;
6105;SDS011;3083;51.508;7.966;2023-11-19T12:37:43;19.30;;;3.77;;
6105;SDS011;3083;51.508;7.966;2023-11-19T12:40:14;14.80;;;4.83;;
6105;SDS011;3083;51.508;7.966;2023-11-19T12:42:42;23.67;;;3.93;;
6105;SDS011;3083;51.508;7.966;2023-11-19T12:45:09;14.47;;;3.50;;
6105;SDS011;3083;51.508;7.966;2023-11-19T12:47:37;17.90;;;3.83;;
6105;SDS011;3083;51.508;7.966;2023-11-19T12:50:05;16.70;;;3.00;;
6105;SDS011;3083;51.508;7.966;2023-11-19T12:52:33;12.03;;;3.70;;
6105;SDS011;3083;51.508;7.966;2023-11-19T12:55:01;14.90;;;3.70;;
6105;SDS011;3083;51.508;7.966;2023-11-19T12:57:38;12.70;;;3.30;;
6105;SDS011;3083;51.508;7.966;2023-11-19T13:00:06;11.97;;;3.40;;
6105;SDS011;3083;51.508;7.966;2023-11-19T13:02:45;13.00;;;3.60;;
6105;SDS011;3083;51.508;7.966;2023-11-19T13:05:22;12.23;;;3.20;;
6105;SDS011;3083;51.508;7.966;2023-11-19T13:07:51;15.03;;;3.43;;
6105;SDS011;3083;51.508;7.966;2023-11-19T13:10:25;17.90;;;3.70;;
6105;SDS011;3083;51.508;7.966;2023-11-19T13:13:04;11.90;;;3.70;;
6105;SDS011;3083;51.508;7.966;2023-11-19T13:15:33;23.77;;;3.50;;
6105;SDS011;3083;51.508;7.966;2023-11-19T13:18:00;12.00;;;3.27;;
6105;SDS011;3083;51.508;7.966;2023-11-19T13:20:27;19.93;;;3.97;;
6105;SDS011;3083;51.508;7.966;2023-11-19T13:22:55;13.07;;;3.80;;
6105;SDS011;3083;51.508;7.966;2023-11-19T13:25:28;17.07;;;4.57;;
6105;SDS011;3083;51.508;7.966;2023-11-19T13:27:56;12.80;;;3.30;;
6105;SDS011;3083;51.508;7.966;2023-11-19T13:30:24;15.80;;;3.90;;
6105;SDS011;3083;51.508;7.966;2023-11-19T13:32:52;26.83;;;3.40;;
6105;SDS011;3083;51.508;7.966;2023-11-19T13:35:20;16.60;;;3.43;;
6105;SDS011;3083;51.508;7.966;2023-11-19T13:37:47;22.20;;;3.77;;
6105;SDS011;3083;51.508;7.966;2023-11-19T13:40:14;15.30;;;3.10;;
6105;SDS011;3083;51.508;7.966;2023-11-19T13:42:43;11.37;;;3.40;;
6105;SDS011;3083;51.508;7.966;2023-11-19T13:45:10;10.97;;;3.07;;
6105;SDS011;3083;51.508;7.966;2023-11-19T13:47:38;12.20;;;3.60;;
6105;SDS011;3083;51.508;7.966;2023-11-19T13:50:07;19.93;;;3.50;;
6105;SDS011;3083;51.508;7.966;2023-11-19T13:52:36;16.67;;;3.37;;
6105;SDS011;3083;51.508;7.966;2023-11-19T13:55:05;14.87;;;3.27;;
6105;SDS011;3083;51.508;7.966;2023-11-19T13:57:33;13.57;;;4.67;;
6105;SDS011;3083;51.508;7.966;2023-11-19T14:00:01;12.43;;;3.10;;
6105;SDS011;3083;51.508;7.966;2023-11-19T14:02:31;14.17;;;3.73;;
6105;SDS011;3083;51.508;7.966;2023-11-19T14:04:58;16.93;;;3.63;;
6105;SDS011;3083;51.508;7.966;2023-11-19T14:07:25;16.57;;;3.17;;
6105;SDS011;3083;51.508;7.966;2023-11-19T14:09:52;11.80;;;3.73;;
6105;SDS011;3083;51.508;7.966;2023-11-19T14:12:19;10.67;;;3.20;;
6105;SDS011;3083;51.508;7.966;2023-11-19T14:14:46;11.87;;;3.00;;
6105;SDS011;3083;51.508;7.966;2023-11-19T14:17:14;12.67;;;2.80;;
6105;SDS011;3083;51.508;7.966;2023-11-19T14:19:41;14.07;;;4.43;;
6105;SDS011;3083;51.508;7.966;2023-11-19T14:22:09;8.10;;;2.73;;
6105;SDS011;3083;51.508;7.966;2023-11-19T14:24:36;7.73;;;2.57;;
6105;SDS011;3083;51.508;7.966;2023-11-19T14:27:03;9.43;;;2.87;;
6105;SDS011;3083;51.508;7.966;2023-11-19T14:29:30;10.13;;;2.40;;
6105;SDS011;3083;51.508;7.966;2023-11-19T14:31:57;13.80;;;2.90;;
6105;SDS011;3083;51.508;7.966;2023-11-19T14:34:25;11.77;;;2.60;;
6105;SDS011;3083;51.508;7.966;2023-11-19T14:36:54;13.13;;;3.57;;
6105;SDS011;3083;51.508;7.966;2023-11-19T14:39:21;10.90;;;2.70;;
6105;SDS011;3083;51.508;7.966;2023-11-19T14:41:47;13.33;;;3.27;;
6105;SDS011;3083;51.508;7.966;2023-11-19T14:44:15;12.57;;;3.33;;
6105;SDS011;3083;51.508;7.966;2023-11-19T14:46:43;14.70;;;3.47;;
6105;SDS011;3083;51.508;7.966;2023-11-19T14:49:10;18.00;;;3.40;;
6105;SDS011;3083;51.508;7.966;2023-11-19T14:51:40;14.20;;;3.20;;
6105;SDS011;3083;51.508;7.966;2023-11-19T14:54:07;19.40;;;3.53;;
6105;SDS011;3083;51.508;7.966;2023-11-19T14:56:34;14.50;;;3.10;;
6105;SDS011;3083;51.508;7.966;2023-11-19T14:59:02;20.97;;;3.77;;
6105;SDS011;3083;51.508;7.966;2023-11-19T15:01:30;9.73;;;2.80;;
6105;SDS011;3083;51.508;7.966;2023-11-19T15:03:57;20.53;;;4.00;;
6105;SDS011;3083;51.508;7.966;2023-11-19T15:06:24;14.03;;;3.07;;
6105;SDS011;3083;51.508;7.966;2023-11-19T15:08:53;14.90;;;3.27;;
6105;SDS011;3083;51.508;7.966;2023-11-19T15:11:21;14.23;;;3.40;;
6105;SDS011;3083;51.508;7.966;2023-11-19T15:13:47;17.47;;;3.83;;
6105;SDS011;3083;51.508;7.966;2023-11-19T15:16:15;17.73;;;3.23;;
6105;SDS011;3083;51.508;7.966;2023-11-19T15:18:47;14.83;;;3.37;;